Time;durP1;ratioP1;P1;durP2;ratioP2;P2;SDS_P1;SDS_P2;PMS_P1;PMS_P2;Temp;Humidity;BMP_temperature;BMP_pressure;BME280_temperature;BME280_humidity;BME280_pressure;Samples;Min_cycle;Max_cycle;Signal;HPM_P1;HPM_P2
2022/09/17 00:01:03;;;;;;;9.07;6.47;;;;;;;;;;6199138;28;20171;-79
2022/09/17 00:04:07;;;;;;;15.00;6.45;;;;;;;;;;6199026;28;20172;-79
2022/09/17 00:07:09;;;;;;;10.68;6.38;;;;;;;;;;6208575;28;20533;-79
2022/09/17 00:10:10;;;;;;;15.82;6.90;;;;;;;;;;6196471;28;20041;-79
2022/09/17 00:13:12;;;;;;;14.45;7.45;;;;;;;;;;6200267;28;20049;-79
2022/09/17 00:16:21;;;;;;;11.95;7.45;;;;;;;;;;6201113;28;20107;-79
2022/09/17 00:19:24;;;;;;;12.95;6.55;;;;;;;;;;6205846;28;20179;-79
2022/09/17 00:22:25;;;;;;;13.43;7.65;;;;;;;;;;6204741;28;20057;-79
2022/09/17 00:25:27;;;;;;;10.85;6.53;;;;;;;;;;6182959;28;20746;-79
2022/09/17 00:28:29;;;;;;;11.02;6.30;;;;;;;;;;6187383;28;20423;-79
2022/09/17 00:31:33;;;;;;;13.90;6.50;;;;;;;;;;6180906;28;20051;-79
2022/09/17 00:34:35;;;;;;;9.98;6.57;;;;;;;;;;6179052;28;20062;-78
2022/09/17 00:37:36;;;;;;;12.90;6.28;;;;;;;;;;6184856;28;20313;-78
2022/09/17 00:40:38;;;;;;;9.63;6.00;;;;;;;;;;6204831;28;20237;-79
2022/09/17 00:43:46;;;;;;;8.90;5.88;;;;;;;;;;6219577;28;20497;-79
2022/09/17 00:46:48;;;;;;;9.65;5.65;;;;;;;;;;6176765;28;20058;-78
2022/09/17 00:49:56;;;;;;;10.93;5.67;;;;;;;;;;6180747;28;20046;-79
2022/09/17 00:53:24;;;;;;;8.07;5.30;;;;;;;;;;6180545;28;20049;-79
2022/09/17 00:56:30;;;;;;;9.45;5.55;;;;;;;;;;6188897;28;20699;-79
2022/09/17 00:59:32;;;;;;;9.48;5.07;;;;;;;;;;6180861;28;20107;-79
2022/09/17 01:02:34;;;;;;;9.98;5.43;;;;;;;;;;6202727;28;20043;-79
2022/09/17 01:05:43;;;;;;;6.75;4.88;;;;;;;;;;6197230;28;20408;-79
2022/09/17 01:08:52;;;;;;;6.95;4.68;;;;;;;;;;6178364;28;20081;-78
2022/09/17 01:12:03;;;;;;;6.50;4.55;;;;;;;;;;6179321;28;21362;-79
2022/09/17 01:15:33;;;;;;;8.50;4.63;;;;;;;;;;6180228;28;20053;-78
2022/09/17 01:18:47;;;;;;;8.32;4.50;;;;;;;;;;6180869;28;20042;-79
2022/09/17 01:22:16;;;;;;;10.88;4.40;;;;;;;;;;6197743;28;20177;-79
2022/09/17 01:25:23;;;;;;;8.40;3.90;;;;;;;;;;6171281;28;20078;-78
2022/09/17 01:28:44;;;;;;;8.55;4.50;;;;;;;;;;6177545;28;20054;-78
2022/09/17 01:32:00;;;;;;;5.25;4.07;;;;;;;;;;6184272;28;20141;-78
2022/09/17 01:35:11;;;;;;;6.85;4.00;;;;;;;;;;6196916;28;20476;-78
2022/09/17 01:38:15;;;;;;;6.63;3.67;;;;;;;;;;6179498;28;20197;-78
2022/09/17 01:41:32;;;;;;;5.63;3.50;;;;;;;;;;6202108;28;20053;-78
2022/09/17 01:44:43;;;;;;;4.72;2.80;;;;;;;;;;6199316;28;20074;-78
2022/09/17 01:47:58;;;;;;;6.47;2.90;;;;;;;;;;6191578;28;20185;-78
2022/09/17 01:51:05;;;;;;;4.43;3.03;;;;;;;;;;6188736;28;20497;-78
2022/09/17 01:54:19;;;;;;;6.07;2.83;;;;;;;;;;6181780;28;20643;-79
2022/09/17 01:57:32;;;;;;;4.95;2.97;;;;;;;;;;6183388;28;20046;-78
2022/09/17 02:00:37;;;;;;;5.35;2.83;;;;;;;;;;6187543;28;20057;-78
2022/09/17 02:03:45;;;;;;;5.15;3.30;;;;;;;;;;6187117;28;20058;-78
2022/09/17 02:06:55;;;;;;;4.47;2.90;;;;;;;;;;6174580;28;20417;-78
2022/09/17 02:10:07;;;;;;;7.32;3.72;;;;;;;;;;6188754;28;20084;-79
2022/09/17 02:13:15;;;;;;;6.95;3.88;;;;;;;;;;6205861;28;20045;-79
2022/09/17 02:16:32;;;;;;;7.75;4.43;;;;;;;;;;6211249;28;20038;-79
2022/09/17 02:19:37;;;;;;;8.00;4.00;;;;;;;;;;6189681;28;20177;-77
2022/09/17 02:22:49;;;;;;;8.82;4.63;;;;;;;;;;6186188;28;20062;-77
2022/09/17 02:26:03;;;;;;;9.52;4.20;;;;;;;;;;6179581;28;20043;-77
2022/09/17 02:29:10;;;;;;;8.43;4.38;;;;;;;;;;6178147;28;20050;-77
2022/09/17 02:32:12;;;;;;;9.82;4.70;;;;;;;;;;6202793;28;20053;-77
2022/09/17 02:35:15;;;;;;;8.77;5.10;;;;;;;;;;6176479;28;20046;-77
2022/09/17 02:38:25;;;;;;;7.35;4.90;;;;;;;;;;6181061;28;20038;-77
2022/09/17 02:41:51;;;;;;;10.43;5.03;;;;;;;;;;6192711;28;20050;-77
2022/09/17 02:45:17;;;;;;;8.52;5.05;;;;;;;;;;6178463;28;20162;-76
2022/09/17 02:48:54;;;;;;;10.35;4.97;;;;;;;;;;6199316;28;20099;-77
2022/09/17 02:52:30;;;;;;;12.55;5.60;;;;;;;;;;6187571;28;20056;-77
2022/09/17 02:55:50;;;;;;;11.93;5.93;;;;;;;;;;6192163;28;20054;-77
2022/09/17 02:59:08;;;;;;;10.95;5.30;;;;;;;;;;6197086;28;20093;-77
2022/09/17 03:02:36;;;;;;;9.60;5.45;;;;;;;;;;6182830;28;20504;-77
2022/09/17 03:05:38;;;;;;;7.40;5.35;;;;;;;;;;6179493;28;20089;-77
2022/09/17 03:08:41;;;;;;;8.43;4.82;;;;;;;;;;6182779;28;20185;-77
2022/09/17 03:11:43;;;;;;;8.85;5.60;;;;;;;;;;6192723;28;20049;-77
2022/09/17 03:14:44;;;;;;;10.85;5.63;;;;;;;;;;6201040;28;20038;-79
2022/09/17 03:17:46;;;;;;;6.80;5.07;;;;;;;;;;6198081;28;20099;-77
2022/09/17 03:20:53;;;;;;;9.20;4.85;;;;;;;;;;6202834;28;20423;-78
2022/09/17 03:23:55;;;;;;;8.50;4.90;;;;;;;;;;6216670;28;20076;-77
2022/09/17 03:26:57;;;;;;;11.40;5.38;;;;;;;;;;6191922;28;20413;-77
2022/09/17 03:29:58;;;;;;;9.63;4.70;;;;;;;;;;6212910;28;20515;-78
2022/09/17 03:33:00;;;;;;;10.40;5.40;;;;;;;;;;6186907;28;20050;-78
2022/09/17 03:36:02;;;;;;;9.07;4.57;;;;;;;;;;6214219;28;20705;-78
2022/09/17 03:39:03;;;;;;;9.10;4.47;;;;;;;;;;6180684;28;20117;-77
2022/09/17 03:42:05;;;;;;;9.13;4.28;;;;;;;;;;6194388;28;20578;-78
2022/09/17 03:45:07;;;;;;;8.68;4.00;;;;;;;;;;6191905;28;20136;-78
2022/09/17 03:48:09;;;;;;;9.15;4.25;;;;;;;;;;6200029;28;20051;-77
2022/09/17 03:51:11;;;;;;;8.07;4.03;;;;;;;;;;6202844;28;20030;-77
2022/09/17 03:54:12;;;;;;;12.17;4.53;;;;;;;;;;6140502;28;20054;-77
2022/09/17 03:57:14;;;;;;;9.85;3.88;;;;;;;;;;6203886;28;20060;-78
2022/09/17 04:00:16;;;;;;;8.30;3.67;;;;;;;;;;6187885;28;20052;-78
2022/09/17 04:03:18;;;;;;;7.10;3.75;;;;;;;;;;6182062;28;20725;-78
2022/09/17 04:06:20;;;;;;;8.52;3.30;;;;;;;;;;6184848;28;20130;-78
2022/09/17 04:09:21;;;;;;;9.52;3.90;;;;;;;;;;6179474;28;20133;-78
2022/09/17 04:12:23;;;;;;;13.77;3.72;;;;;;;;;;6202016;28;20088;-78
2022/09/17 04:15:25;;;;;;;9.63;3.45;;;;;;;;;;6181636;28;20057;-78
2022/09/17 04:18:27;;;;;;;5.00;3.35;;;;;;;;;;6199725;28;20047;-78
2022/09/17 04:21:28;;;;;;;10.30;3.80;;;;;;;;;;6183865;28;20042;-77
2022/09/17 04:24:30;;;;;;;9.63;3.60;;;;;;;;;;6174895;28;20047;-78
2022/09/17 04:27:32;;;;;;;9.57;3.63;;;;;;;;;;6220377;28;20042;-78
2022/09/17 04:30:33;;;;;;;9.48;3.63;;;;;;;;;;6218160;28;20042;-78
2022/09/17 04:33:36;;;;;;;8.57;3.63;;;;;;;;;;6194301;28;20070;-83
2022/09/17 04:36:38;;;;;;;8.95;3.60;;;;;;;;;;6205979;28;20522;-82
2022/09/17 04:39:43;;;;;;;10.10;3.60;;;;;;;;;;6224466;28;20076;-82
2022/09/17 04:42:44;;;;;;;13.85;4.00;;;;;;;;;;6209653;28;20552;-81
2022/09/17 04:45:47;;;;;;;8.55;3.35;;;;;;;;;;6197531;28;20042;-81
2022/09/17 04:48:48;;;;;;;8.23;3.53;;;;;;;;;;6181321;28;20392;-80
2022/09/17 04:51:50;;;;;;;9.95;3.42;;;;;;;;;;6186125;28;20053;-82
2022/09/17 04:54:51;;;;;;;12.65;4.32;;;;;;;;;;6187796;28;20408;-80
2022/09/17 04:57:54;;;;;;;14.27;3.78;;;;;;;;;;6193534;28;20348;-81
2022/09/17 05:00:55;;;;;;;8.80;3.45;;;;;;;;;;6217309;28;20098;-81
2022/09/17 05:03:57;;;;;;;8.05;3.45;;;;;;;;;;6204703;28;20532;-82
2022/09/17 05:06:59;;;;;;;9.55;3.50;;;;;;;;;;6213534;28;20115;-82
2022/09/17 05:10:00;;;;;;;13.82;3.97;;;;;;;;;;6190732;28;20050;-81
2022/09/17 05:13:02;;;;;;;9.63;3.65;;;;;;;;;;6186934;28;20038;-81
2022/09/17 05:16:04;;;;;;;12.13;3.20;;;;;;;;;;6211654;28;20042;-82
2022/09/17 05:19:06;;;;;;;11.65;3.92;;;;;;;;;;6215937;28;20669;-81
2022/09/17 05:22:08;;;;;;;12.30;4.00;;;;;;;;;;6208787;28;20046;-81
2022/09/17 05:25:11;;;;;;;7.18;3.67;;;;;;;;;;6216114;28;20939;-79
2022/09/17 05:28:13;;;;;;;11.85;4.00;;;;;;;;;;6215446;28;20581;-81
2022/09/17 05:31:15;;;;;;;10.32;4.03;;;;;;;;;;6227267;28;20148;-81
2022/09/17 05:34:16;;;;;;;12.18;4.07;;;;;;;;;;6226360;28;20045;-81
2022/09/17 05:37:18;;;;;;;7.82;3.95;;;;;;;;;;6206450;28;21928;-81
2022/09/17 05:40:22;;;;;;;8.40;4.10;;;;;;;;;;6210547;28;20053;-81
2022/09/17 05:43:24;;;;;;;13.02;4.57;;;;;;;;;;6218714;28;20056;-81
2022/09/17 05:46:25;;;;;;;10.25;4.28;;;;;;;;;;6206392;28;20042;-82
2022/09/17 05:49:27;;;;;;;12.13;5.05;;;;;;;;;;6183571;28;20047;-82
2022/09/17 05:52:29;;;;;;;14.75;4.53;;;;;;;;;;6191642;28;20074;-81
2022/09/17 05:55:32;;;;;;;13.35;4.70;;;;;;;;;;6220602;28;20046;-81
2022/09/17 05:58:34;;;;;;;10.93;4.80;;;;;;;;;;6216471;28;20046;-81
2022/09/17 06:01:36;;;;;;;15.67;5.10;;;;;;;;;;6197479;28;20076;-81
2022/09/17 06:04:38;;;;;;;9.60;5.13;;;;;;;;;;6217639;28;20049;-81
2022/09/17 06:07:40;;;;;;;13.23;5.35;;;;;;;;;;6224865;28;20071;-80
2022/09/17 06:10:42;;;;;;;13.25;5.07;;;;;;;;;;6220153;28;20132;-80
2022/09/17 06:13:44;;;;;;;13.98;5.53;;;;;;;;;;6216846;28;20513;-81
2022/09/17 06:16:49;;;;;;;11.02;5.28;;;;;;;;;;6215338;28;20045;-81
2022/09/17 06:19:50;;;;;;;14.20;5.38;;;;;;;;;;6225760;28;20041;-83
2022/09/17 06:22:58;;;;;;;13.48;5.13;;;;;;;;;;6222367;28;20049;-80
2022/09/17 06:26:05;;;;;;;9.32;4.75;;;;;;;;;;6205049;28;20042;-81
2022/09/17 06:29:07;;;;;;;15.93;5.57;;;;;;;;;;6206058;28;20664;-80
2022/09/17 06:32:11;;;;;;;12.70;5.15;;;;;;;;;;6226957;28;20589;-81
2022/09/17 06:35:13;;;;;;;14.13;4.97;;;;;;;;;;6209922;28;20045;-81
2022/09/17 06:38:15;;;;;;;16.80;5.18;;;;;;;;;;6184026;28;20177;-81
2022/09/17 06:41:16;;;;;;;12.25;4.97;;;;;;;;;;6209430;28;20106;-81
2022/09/17 06:44:19;;;;;;;;;;;;;;;;;;6201959;28;20045;-81
2022/09/17 06:47:24;;;;;;;12.77;4.82;;;;;;;;;;6218523;28;19925;-80
2022/09/17 06:50:25;;;;;;;12.30;4.68;;;;;;;;;;6211819;28;20149;-80
2022/09/17 06:53:28;;;;;;;13.63;4.75;;;;;;;;;;6198453;28;20046;-80
2022/09/17 06:56:33;;;;;;;7.55;4.32;;;;;;;;;;6201889;28;20078;-81
2022/09/17 06:59:34;;;;;;;16.10;5.60;;;;;;;;;;6185520;28;20054;-80
2022/09/17 07:02:36;;;;;;;14.18;4.70;;;;;;;;;;6196712;28;20125;-80
2022/09/17 07:05:38;;;;;;;9.82;4.15;;;;;;;;;;6186295;28;20134;-80
2022/09/17 07:08:40;;;;;;;10.13;4.43;;;;;;;;;;6209787;28;20054;-80
2022/09/17 07:11:42;;;;;;;7.97;4.55;;;;;;;;;;6180567;28;20054;-79
2022/09/17 07:14:43;;;;;;;10.52;4.65;;;;;;;;;;6195203;28;20539;-79
2022/09/17 07:17:45;;;;;;;13.27;4.95;;;;;;;;;;6212411;28;20116;-80
2022/09/17 07:20:55;;;;;;;8.70;4.50;;;;;;;;;;6182180;28;20114;-80
2022/09/17 07:23:57;;;;;;;11.25;4.65;;;;;;;;;;6184369;28;20046;-80
2022/09/17 07:26:59;;;;;;;14.20;4.63;;;;;;;;;;6206510;28;20054;-79
2022/09/17 07:30:00;;;;;;;14.63;4.55;;;;;;;;;;6190577;28;20046;-79
2022/09/17 07:33:02;;;;;;;13.07;4.25;;;;;;;;;;6176714;28;20046;-80
2022/09/17 07:36:07;;;;;;;15.38;4.53;;;;;;;;;;6187821;28;20050;-80
2022/09/17 07:39:10;;;;;;;10.90;4.25;;;;;;;;;;6198126;28;20481;-80
2022/09/17 07:42:12;;;;;;;;;;;;;;;;;;6195942;28;20724;-80
2022/09/17 07:45:14;;;;;;;10.23;3.75;;;;;;;;;;6190858;28;19982;-80
2022/09/17 07:48:15;;;;;;;8.30;3.67;;;;;;;;;;6217972;28;20046;-80
2022/09/17 07:51:20;;;;;;;7.80;3.50;;;;;;;;;;6209747;28;20046;-81
2022/09/17 07:54:24;;;;;;;8.00;3.65;;;;;;;;;;6210565;28;20042;-80
2022/09/17 07:57:26;;;;;;;;;;;;;;;;;;6185964;28;20130;-80
2022/09/17 08:00:27;;;;;;;9.50;3.35;;;;;;;;;;6209056;28;19930;-80
2022/09/17 08:03:31;;;;;;;8.32;3.38;;;;;;;;;;6196132;28;20054;-80
2022/09/17 08:06:37;;;;;;;8.15;2.80;;;;;;;;;;6205320;28;20531;-79
2022/09/17 08:09:38;;;;;;;11.80;3.63;;;;;;;;;;6207846;28;20053;-80
2022/09/17 08:12:40;;;;;;;6.35;2.92;;;;;;;;;;6207132;28;20081;-80
2022/09/17 08:15:42;;;;;;;5.93;2.78;;;;;;;;;;6218643;28;20197;-80
2022/09/17 08:18:45;;;;;;;7.05;2.45;;;;;;;;;;6223603;28;20049;-81
2022/09/17 08:21:47;;;;;;;4.70;2.15;;;;;;;;;;6219444;28;20160;-80
2022/09/17 08:24:48;;;;;;;6.55;2.72;;;;;;;;;;6184759;28;20042;-81
2022/09/17 08:27:55;;;;;;;8.32;2.50;;;;;;;;;;6194201;28;20045;-81
2022/09/17 08:31:02;;;;;;;6.65;2.00;;;;;;;;;;6168693;28;20057;-81
2022/09/17 08:34:10;;;;;;;6.28;1.85;;;;;;;;;;6191686;28;20976;-80
2022/09/17 08:37:12;;;;;;;4.75;1.75;;;;;;;;;;6198060;28;20075;-80
2022/09/17 08:40:19;;;;;;;5.00;2.07;;;;;;;;;;6190975;28;20125;-81
2022/09/17 08:43:23;;;;;;;7.38;2.10;;;;;;;;;;6176445;28;20205;-81
2022/09/17 08:46:31;;;;;;;4.95;2.17;;;;;;;;;;6205040;28;20053;-80
2022/09/17 08:49:38;;;;;;;6.88;2.17;;;;;;;;;;6202657;28;20049;-81
2022/09/17 08:53:10;;;;;;;4.80;1.95;;;;;;;;;;6188914;28;20039;-81
2022/09/17 08:56:18;;;;;;;6.13;2.05;;;;;;;;;;6189655;28;20037;-80
2022/09/17 08:59:29;;;;;;;3.28;1.55;;;;;;;;;;6199517;28;20042;-81
2022/09/17 09:02:40;;;;;;;3.83;1.58;;;;;;;;;;6178147;28;20056;-80
2022/09/17 09:05:43;;;;;;;5.82;2.08;;;;;;;;;;6192520;28;20050;-81
2022/09/17 09:09:16;;;;;;;7.70;2.17;;;;;;;;;;6190616;28;20363;-80
2022/09/17 09:12:25;;;;;;;4.17;1.83;;;;;;;;;;6185437;28;20050;-80
2022/09/17 09:15:46;;;;;;;5.53;1.80;;;;;;;;;;6190368;28;20049;-80
2022/09/17 09:18:53;;;;;;;3.70;1.70;;;;;;;;;;6209387;28;20054;-80
2022/09/17 09:22:39;;;;;;;5.25;1.90;;;;;;;;;;6207956;28;20040;-79
2022/09/17 09:25:51;;;;;;;5.25;1.70;;;;;;;;;;6216790;28;20054;-80
2022/09/17 09:29:05;;;;;;;7.10;2.00;;;;;;;;;;6186129;28;20042;-80
2022/09/17 09:32:18;;;;;;;5.80;1.85;;;;;;;;;;6198125;28;20046;-80
2022/09/17 09:35:24;;;;;;;3.72;1.70;;;;;;;;;;6231857;28;20050;-80
2022/09/17 09:38:39;;;;;;;3.72;1.58;;;;;;;;;;6203753;28;20046;-80
2022/09/17 09:42:03;;;;;;;6.32;1.67;;;;;;;;;;6219347;28;20058;-81
2022/09/17 09:45:18;;;;;;;8.35;1.50;;;;;;;;;;6234814;28;20077;-81
2022/09/17 09:48:54;;;;;;;3.35;1.30;;;;;;;;;;6229549;28;20392;-80
2022/09/17 09:52:08;;;;;;;6.15;1.52;;;;;;;;;;6217245;28;20060;-80
2022/09/17 09:55:42;;;;;;;5.32;1.20;;;;;;;;;;6208065;28;20048;-80
2022/09/17 09:58:44;;;;;;;3.30;0.90;;;;;;;;;;6202991;28;20045;-81
2022/09/17 10:01:45;;;;;;;5.28;1.17;;;;;;;;;;6209144;28;20050;-80
2022/09/17 10:04:47;;;;;;;4.05;1.35;;;;;;;;;;6226076;28;20069;-80
2022/09/17 10:07:54;;;;;;;4.78;1.20;;;;;;;;;;6211149;28;20042;-79
2022/09/17 10:11:01;;;;;;;5.30;1.55;;;;;;;;;;6187641;28;20053;-78
2022/09/17 10:14:19;;;;;;;4.93;1.30;;;;;;;;;;6180863;28;20074;-81
2022/09/17 10:17:25;;;;;;;3.08;1.17;;;;;;;;;;6192419;28;20050;-81
2022/09/17 10:20:27;;;;;;;5.75;1.10;;;;;;;;;;6185006;28;20121;-80
2022/09/17 10:23:35;;;;;;;2.10;1.05;;;;;;;;;;6189167;28;20054;-81
2022/09/17 10:26:37;;;;;;;5.75;1.38;;;;;;;;;;6203246;28;20057;-80
2022/09/17 10:29:48;;;;;;;2.50;0.80;;;;;;;;;;6180380;28;20122;-79
2022/09/17 10:33:15;;;;;;;5.45;1.00;;;;;;;;;;6202618;28;20520;-79
2022/09/17 10:36:35;;;;;;;1.85;0.80;;;;;;;;;;6183953;28;20504;-79
2022/09/17 10:39:43;;;;;;;1.70;0.80;;;;;;;;;;6175248;28;20046;-79
2022/09/17 10:42:47;;;;;;;2.65;0.90;;;;;;;;;;6200015;28;20192;-79
2022/09/17 10:45:58;;;;;;;2.38;0.70;;;;;;;;;;6193905;28;20173;-78
2022/09/17 10:49:21;;;;;;;3.15;0.70;;;;;;;;;;6199759;28;20046;-78
2022/09/17 10:52:31;;;;;;;2.47;0.70;;;;;;;;;;6196891;28;20078;-80
2022/09/17 10:55:37;;;;;;;3.55;0.93;;;;;;;;;;6186741;28;20054;-79
2022/09/17 10:59:01;;;;;;;2.35;0.80;;;;;;;;;;6184340;28;20046;-79
2022/09/17 11:02:24;;;;;;;1.95;0.77;;;;;;;;;;6178574;28;20046;-79
2022/09/17 11:05:58;;;;;;;2.83;0.90;;;;;;;;;;6183178;28;20048;-82
2022/09/17 11:09:15;;;;;;;4.20;0.88;;;;;;;;;;6205894;28;20586;-79
2022/09/17 11:12:40;;;;;;;2.70;0.80;;;;;;;;;;6206568;28;20042;-79
2022/09/17 11:15:50;;;;;;;2.33;0.75;;;;;;;;;;6183945;28;20609;-80
2022/09/17 11:19:10;;;;;;;3.13;1.02;;;;;;;;;;6174276;28;20770;-80
2022/09/17 11:22:26;;;;;;;2.38;1.00;;;;;;;;;;6181789;28;20081;-80
2022/09/17 11:25:41;;;;;;;2.78;0.60;;;;;;;;;;6167760;28;20539;-79
2022/09/17 11:28:52;;;;;;;3.47;0.70;;;;;;;;;;6180832;28;20100;-80
2022/09/17 11:32:19;;;;;;;3.40;0.95;;;;;;;;;;6189319;28;20042;-80
2022/09/17 11:35:39;;;;;;;4.60;1.00;;;;;;;;;;6192163;28;20050;-79
2022/09/17 11:38:47;;;;;;;2.33;0.88;;;;;;;;;;6172023;28;20420;-80
2022/09/17 11:41:52;;;;;;;6.18;1.10;;;;;;;;;;6185272;28;20188;-80
2022/09/17 11:45:01;;;;;;;3.72;0.93;;;;;;;;;;6181252;28;20845;-80
2022/09/17 11:48:16;;;;;;;1.13;0.70;;;;;;;;;;6182671;28;20425;-81
2022/09/17 11:51:17;;;;;;;4.18;1.00;;;;;;;;;;6181418;28;20046;-79
2022/09/17 11:54:39;;;;;;;1.83;0.90;;;;;;;;;;6197654;28;20128;-79
2022/09/17 11:57:41;;;;;;;3.60;0.90;;;;;;;;;;6196926;28;20634;-80
2022/09/17 12:00:49;;;;;;;3.22;0.90;;;;;;;;;;6193920;28;20055;-80
2022/09/17 12:04:00;;;;;;;2.47;0.80;;;;;;;;;;6199260;28;20061;-79
2022/09/17 12:07:28;;;;;;;1.38;0.70;;;;;;;;;;6205883;28;20068;-79
2022/09/17 12:10:30;;;;;;;3.65;0.85;;;;;;;;;;6208290;28;20057;-79
2022/09/17 12:13:40;;;;;;;3.42;0.90;;;;;;;;;;6209064;28;20049;-80
2022/09/17 12:16:45;;;;;;;2.03;0.90;;;;;;;;;;6215702;28;20034;-80
2022/09/17 12:19:51;;;;;;;3.30;0.90;;;;;;;;;;6229096;28;20384;-79
2022/09/17 12:22:57;;;;;;;0.85;0.77;;;;;;;;;;6212328;28;20192;-79
2022/09/17 12:26:01;;;;;;;0.73;0.70;;;;;;;;;;6208928;28;20038;-80
2022/09/17 12:29:05;;;;;;;3.55;0.90;;;;;;;;;;6221091;28;20063;-79
2022/09/17 12:32:30;;;;;;;2.05;0.85;;;;;;;;;;6211088;28;20053;-79
2022/09/17 12:36:02;;;;;;;2.40;1.00;;;;;;;;;;6202345;28;20057;-79
2022/09/17 12:39:39;;;;;;;1.92;0.80;;;;;;;;;;6211170;28;20061;-79
2022/09/17 12:43:27;;;;;;;2.17;0.70;;;;;;;;;;6188557;28;20054;-79
2022/09/17 12:46:45;;;;;;;2.25;0.70;;;;;;;;;;6209925;28;20059;-79
2022/09/17 12:50:09;;;;;;;2.58;1.13;;;;;;;;;;6210066;28;20048;-79
2022/09/17 12:53:20;;;;;;;2.05;0.80;;;;;;;;;;6207154;28;20046;-79
2022/09/17 12:56:29;;;;;;;2.15;0.55;;;;;;;;;;6203458;28;20057;-79
2022/09/17 12:59:35;;;;;;;2.08;0.73;;;;;;;;;;6212597;28;20054;-79
2022/09/17 13:02:55;;;;;;;5.43;0.80;;;;;;;;;;6179290;28;20603;-79
2022/09/17 13:06:15;;;;;;;1.52;0.98;;;;;;;;;;6184243;28;20125;-79
2022/09/17 13:09:58;;;;;;;1.33;0.70;;;;;;;;;;6194883;28;20101;-79
2022/09/17 13:13:41;;;;;;;5.32;1.00;;;;;;;;;;6178693;28;20054;-79
2022/09/17 13:16:59;;;;;;;3.90;0.77;;;;;;;;;;6219532;28;20053;-79
2022/09/17 13:20:12;;;;;;;2.28;0.90;;;;;;;;;;6207455;28;22003;-78
2022/09/17 13:23:14;;;;;;;1.90;0.75;;;;;;;;;;6206727;28;20077;-79
2022/09/17 13:26:18;;;;;;;2.10;0.55;;;;;;;;;;6204158;28;20046;-79
2022/09/17 13:29:42;;;;;;;2.35;0.70;;;;;;;;;;6223203;28;20070;-78
2022/09/17 13:32:45;;;;;;;;;;;;;;;;;;6198387;28;20051;-79
2022/09/17 13:35:47;;;;;;;3.50;0.50;;;;;;;;;;6206135;28;19984;-79
2022/09/17 13:38:49;;;;;;;0.50;0.50;;;;;;;;;;6202620;28;20086;-79
2022/09/17 13:42:01;;;;;;;2.63;0.70;;;;;;;;;;6175622;28;20497;-79
2022/09/17 13:45:06;;;;;;;1.13;0.30;;;;;;;;;;6146551;28;20037;-80
2022/09/17 13:48:24;;;;;;;1.42;0.50;;;;;;;;;;6191797;28;20042;-79
2022/09/17 13:51:29;;;;;;;0.70;0.32;;;;;;;;;;6213188;28;20077;-79
2022/09/17 13:54:37;;;;;;;0.95;0.30;;;;;;;;;;6195622;28;20061;-79
2022/09/17 13:57:49;;;;;;;0.50;0.30;;;;;;;;;;6196527;28;20761;-79
2022/09/17 14:00:55;;;;;;;2.05;0.50;;;;;;;;;;6208359;28;20137;-80
2022/09/17 14:03:57;;;;;;;1.58;0.30;;;;;;;;;;6183053;28;20623;-80
2022/09/17 14:07:00;;;;;;;1.17;0.40;;;;;;;;;;6191248;28;20047;-79
2022/09/17 14:10:14;;;;;;;;;;;;;;;;;;6171972;28;20551;-79
2022/09/17 14:13:36;;;;;;;0.95;0.50;;;;;;;;;;6201033;28;19932;-80
2022/09/17 14:16:41;;;;;;;0.45;0.35;;;;;;;;;;6179739;28;20049;-80
2022/09/17 14:19:50;;;;;;;0.40;0.30;;;;;;;;;;6192987;28;20411;-81
2022/09/17 14:22:59;;;;;;;0.98;0.30;;;;;;;;;;6192612;28;20113;-80
2022/09/17 14:26:04;;;;;;;0.60;0.32;;;;;;;;;;6200895;28;20479;-81
2022/09/17 14:29:11;;;;;;;0.80;0.30;;;;;;;;;;6166230;28;20639;-81
2022/09/17 14:32:21;;;;;;;0.50;0.32;;;;;;;;;;6207814;28;20053;-80
2022/09/17 14:35:32;;;;;;;0.40;0.30;;;;;;;;;;6190682;28;20042;-80
2022/09/17 14:38:43;;;;;;;0.57;0.28;;;;;;;;;;6180826;28;20406;-80
2022/09/17 14:42:26;;;;;;;1.85;0.40;;;;;;;;;;6190274;28;20046;-80
2022/09/17 14:46:32;;;;;;;1.15;0.35;;;;;;;;;;6184960;28;20076;-80
2022/09/17 14:49:35;;;;;;;1.45;0.40;;;;;;;;;;6206926;28;20049;-82
2022/09/17 14:52:38;;;;;;;1.27;0.40;;;;;;;;;;6206271;28;20139;-82
2022/09/17 14:55:41;;;;;;;0.55;0.40;;;;;;;;;;6194424;28;20420;-83
2022/09/17 14:58:49;;;;;;;1.17;0.52;;;;;;;;;;6221664;28;20052;-84
2022/09/17 15:01:51;;;;;;;0.60;0.40;;;;;;;;;;6192850;28;20657;-84
2022/09/17 15:04:53;;;;;;;1.25;0.40;;;;;;;;;;6220785;28;20069;-82
2022/09/17 15:08:08;;;;;;;2.05;0.40;;;;;;;;;;6232677;28;20049;-84
2022/09/17 15:11:10;;;;;;;0.85;0.60;;;;;;;;;;6233297;28;20048;-82
2022/09/17 15:14:27;;;;;;;1.20;0.52;;;;;;;;;;6220498;28;20120;-82
2022/09/17 15:17:29;;;;;;;1.75;0.50;;;;;;;;;;6231819;28;20136;-81
2022/09/17 15:20:31;;;;;;;2.15;0.55;;;;;;;;;;6198661;28;20065;-82
2022/09/17 15:23:35;;;;;;;2.28;0.60;;;;;;;;;;6218043;28;20074;-84
2022/09/17 15:26:40;;;;;;;0.95;0.35;;;;;;;;;;6230734;28;20053;-82
2022/09/17 15:29:45;;;;;;;1.27;0.50;;;;;;;;;;6231819;28;20601;-83
2022/09/17 15:32:52;;;;;;;1.70;0.50;;;;;;;;;;6202589;28;20152;-80
2022/09/17 15:36:26;;;;;;;1.50;0.60;;;;;;;;;;6202371;28;20060;-80
2022/09/17 15:39:30;;;;;;;2.65;0.82;;;;;;;;;;6194354;28;20045;-80
2022/09/17 15:42:32;;;;;;;2.95;1.10;;;;;;;;;;6202143;28;20084;-80
2022/09/17 15:45:38;;;;;;;2.00;0.50;;;;;;;;;;6202953;28;20054;-80
2022/09/17 15:48:40;;;;;;;2.25;0.65;;;;;;;;;;6207512;28;20053;-80
2022/09/17 15:51:42;;;;;;;2.28;0.57;;;;;;;;;;6221367;28;21267;-79
2022/09/17 15:54:43;;;;;;;1.00;0.55;;;;;;;;;;6222667;28;20123;-77
2022/09/17 15:57:45;;;;;;;3.17;1.02;;;;;;;;;;6202796;28;20057;-78
2022/09/17 16:01:18;;;;;;;4.72;1.85;;;;;;;;;;6190545;28;20057;-77
2022/09/17 16:04:25;;;;;;;1.60;0.50;;;;;;;;;;6212164;28;20620;-78
2022/09/17 16:07:29;;;;;;;1.85;0.40;;;;;;;;;;6197698;28;20507;-79
2022/09/17 16:10:30;;;;;;;1.33;0.30;;;;;;;;;;6197411;28;20420;-78
2022/09/17 16:13:32;;;;;;;1.30;0.20;;;;;;;;;;6212135;28;20058;-79
2022/09/17 16:16:36;;;;;;;1.00;0.28;;;;;;;;;;6208805;28;20045;-79
2022/09/17 16:19:38;;;;;;;0.55;0.35;;;;;;;;;;6216191;28;20052;-79
2022/09/17 16:22:41;;;;;;;0.80;0.30;;;;;;;;;;6213049;28;20083;-79
2022/09/17 16:25:43;;;;;;;2.58;0.50;;;;;;;;;;6222296;28;20164;-78
2022/09/17 16:28:47;;;;;;;0.50;0.43;;;;;;;;;;6204560;28;20054;-78
2022/09/17 16:31:50;;;;;;;0.52;0.30;;;;;;;;;;6212319;28;20056;-78
2022/09/17 16:34:55;;;;;;;1.45;0.50;;;;;;;;;;6186433;28;20500;-78
2022/09/17 16:37:59;;;;;;;2.08;0.40;;;;;;;;;;6205382;28;20081;-80
2022/09/17 16:41:04;;;;;;;2.03;0.35;;;;;;;;;;6205336;28;20046;-80
2022/09/17 16:44:06;;;;;;;1.45;0.43;;;;;;;;;;6230902;28;20528;-80
2022/09/17 16:47:08;;;;;;;3.55;0.65;;;;;;;;;;6217512;28;20508;-80
2022/09/17 16:50:13;;;;;;;2.30;0.47;;;;;;;;;;6218300;28;20057;-80
2022/09/17 16:53:15;;;;;;;2.75;0.40;;;;;;;;;;6211443;28;20081;-79
2022/09/17 16:56:17;;;;;;;3.88;1.23;;;;;;;;;;6203036;28;20053;-79
2022/09/17 16:59:19;;;;;;;1.02;0.30;;;;;;;;;;6228820;28;20121;-80
2022/09/17 17:02:21;;;;;;;2.08;0.50;;;;;;;;;;6188635;28;20045;-78
2022/09/17 17:05:25;;;;;;;0.73;0.40;;;;;;;;;;6224583;28;20038;-79
2022/09/17 17:08:28;;;;;;;2.25;0.50;;;;;;;;;;6193059;28;20069;-77
2022/09/17 17:11:29;;;;;;;2.13;0.70;;;;;;;;;;6212381;28;20145;-78
2022/09/17 17:14:31;;;;;;;1.35;0.47;;;;;;;;;;6218219;28;20049;-78
2022/09/17 17:17:34;;;;;;;2.28;0.82;;;;;;;;;;6201447;28;20467;-78
2022/09/17 17:20:38;;;;;;;1.55;0.30;;;;;;;;;;6193544;28;20046;-78
2022/09/17 17:23:43;;;;;;;2.45;0.50;;;;;;;;;;6229809;28;20078;-79
2022/09/17 17:26:47;;;;;;;3.72;0.60;;;;;;;;;;6202815;28;20527;-77
2022/09/17 17:29:51;;;;;;;1.27;0.52;;;;;;;;;;6192048;28;20050;-77
2022/09/17 17:32:53;;;;;;;2.97;0.60;;;;;;;;;;6213355;28;20064;-78
2022/09/17 17:35:58;;;;;;;3.42;0.60;;;;;;;;;;6221851;28;20050;-79
2022/09/17 17:39:08;;;;;;;2.28;0.50;;;;;;;;;;6188445;28;20543;-78
2022/09/17 17:42:09;;;;;;;1.07;0.70;;;;;;;;;;6189159;28;20103;-78
2022/09/17 17:45:11;;;;;;;2.00;0.50;;;;;;;;;;6221725;28;20038;-78
2022/09/17 17:48:13;;;;;;;3.08;0.65;;;;;;;;;;6226671;28;20058;-80
2022/09/17 17:51:17;;;;;;;6.50;1.10;;;;;;;;;;6216643;28;20046;-81
2022/09/17 17:54:33;;;;;;;;;;;;;;;;;;;;;
2022/09/17 17:57:56;;;;;;;1.15;0.40;;;;;;;;;;6203836;28;20046;-79
2022/09/17 18:01:20;;;;;;;2.10;0.60;;;;;;;;;;6221916;28;20042;-78
2022/09/17 18:04:21;;;;;;;4.18;0.82;;;;;;;;;;6223063;28;20512;-79
2022/09/17 18:07:23;;;;;;;6.13;1.08;;;;;;;;;;6221756;28;20504;-79
2022/09/17 18:10:26;;;;;;;2.15;0.70;;;;;;;;;;6212853;28;20061;-79
2022/09/17 18:13:29;;;;;;;4.00;1.08;;;;;;;;;;6209992;28;20085;-78
2022/09/17 18:16:31;;;;;;;4.93;1.10;;;;;;;;;;6206673;28;20058;-78
2022/09/17 18:19:32;;;;;;;2.50;1.05;;;;;;;;;;6195598;28;20060;-78
2022/09/17 18:22:34;;;;;;;3.55;1.30;;;;;;;;;;6221842;28;20402;-78
2022/09/17 18:25:36;;;;;;;2.70;0.80;;;;;;;;;;6228561;28;20057;-78
2022/09/17 18:28:38;;;;;;;2.35;1.10;;;;;;;;;;6206069;28;20042;-78
2022/09/17 18:31:40;;;;;;;3.97;1.02;;;;;;;;;;6207636;28;20076;-78
2022/09/17 18:34:41;;;;;;;2.67;0.90;;;;;;;;;;6211126;28;20405;-77
2022/09/17 18:37:43;;;;;;;1.15;0.68;;;;;;;;;;6227322;28;20042;-77
2022/09/17 18:40:45;;;;;;;0.95;0.88;;;;;;;;;;6204622;28;20041;-78
2022/09/17 18:43:47;;;;;;;2.80;0.70;;;;;;;;;;6194456;28;20457;-77
2022/09/17 18:46:49;;;;;;;1.05;0.52;;;;;;;;;;6204041;28;20125;-77